Atmospheric History
08/07/2012 00:01  to  8/8/2012 00:01
Change End Date:
To complete the export process:
1) Select all of the data below
2) Copy the data to the clipboard
3) Open a word processor such as Notepad
4) Paste the data into the word processor
5) Save the file

Date/Time (MST), AirTemp, RH, Dewpoint ,AvgWindSpeed, GustWindSpeed, WindDirection, PrecipType, PrecipIntensity, PrecipAccumulation, PrecipRate ,Visibility
08/07/2012 23:58, 64, 26 , 28 ,4, 6, N, None, None , 0, 0 ,6560
08/07/2012 23:49, 68, 22 , 28 ,6, 7, N, None, None , 0, 0 ,6560
08/07/2012 23:48, 68, 22 , 28 ,6, 7, N, None, None , 0, 0 ,6560
08/07/2012 23:38, 69, 21 , 28 ,6, 8, N, None, None , 0, 0 ,6560
08/07/2012 23:28, 70, 21 , 28 ,7, 9, N, None, None , 0, 0 ,6560
08/07/2012 23:19, 70, 21 , 29 ,7, 8, N, None, None , 0, 0 ,6560
08/07/2012 23:18, 70, 21 , 29 ,7, 8, N, None, None , 0, 0 ,6560
08/07/2012 23:08, 71, 20 , 29 ,7, 9, N, None, None , 0, 0 ,6560
08/07/2012 22:58, 72, 20 , 29 ,7, 9, N, None, None , 0, 0 ,6560
08/07/2012 22:51, 71, 21 , 29 ,7, 9, N, None, None , 0, 0 ,6560
08/07/2012 22:48, 71, 21 , 29 ,6, 9, N, None, None , 0, 0 ,6560
08/07/2012 22:38, 71, 20 , 29 ,8, 9, N, None, None , 0, 0 ,6560
08/07/2012 22:28, 68, 22 , 28 ,6, 9, NW, None, None , 0, 0 ,6560
08/07/2012 22:19, 68, 23 , 29 ,7, 9, NW, None, None , 0, 0 ,6560
08/07/2012 22:18, 68, 22 , 28 ,7, 9, W, None, None , 0, 0 ,6560
08/07/2012 22:08, 67, 23 , 28 ,7, 8, W, None, None , 0, 0 ,6560
08/07/2012 21:58, 67, 23 , 28 ,7, 8, NW, None, None , 0, 0 ,6560
08/07/2012 21:49, 67, 23 , 28 ,4, 6, NW, None, None , 0, 0 ,6560
08/07/2012 21:48, 67, 23 , 28 ,4, 6, NW, None, None , 0, 0 ,6560
08/07/2012 21:38, 68, 22 , 28 ,4, 6, W, None, None , 0, 0 ,6560
08/07/2012 21:31, 68, 22 , 28 ,4, 6, NW, None, None , 0, 0 ,6560
08/07/2012 21:28, 69, 22 , 28 ,5, 6, W, None, None , 0, 0 ,6560
08/07/2012 21:19, 69, 21 , 28 ,5, 6, NW, None, None , 0, 0 ,6560
08/07/2012 21:18, 70, 21 , 29 ,6, 6, W, None, None , 0, 0 ,6560
08/07/2012 21:08, 72, 20 , 29 ,4, 6, W, None, None , 0, 0 ,6560
08/07/2012 21:00, 73, 20 , 29 ,4, 6, W, None, None , 0, 0 ,6560
08/07/2012 20:57, 71, 20 , 29 ,4, 7, W, None, None , 0, 0 ,6560
08/07/2012 20:49, 72, 20 , 30 ,6, 7, N, None, None , 0, 0 ,6560
08/07/2012 20:47, 73, 19 , 29 ,6, 7, N, None, None , 0, 0 ,6560
08/07/2012 20:37, 77, 16 , 29 ,3, 5, NW, None, None , 0, 0 ,6560
08/07/2012 20:30, 77, 17 , 29 ,3, 4, NW, None, None , 0, 0 ,6560
08/07/2012 20:27, 76, 17 , 29 ,3, 4, NW, None, None , 0, 0 ,6560
08/07/2012 20:19, 76, 18 , 31 ,1, 6, W, None, None , 0, 0 ,6560
08/07/2012 20:17, 76, 18 , 31 ,2, 6, W, None, None , 0, 0 ,6560
08/07/2012 20:07, 78, 17 , 31 ,4, 6, W, None, None , 0, 0 ,6560
08/07/2012 19:57, 79, 17 , 32 ,2, 7, W, None, None , 0, 0 ,6560
08/07/2012 19:49, 80, 16 , 30 ,4, 11, W, None, None , 0, 0 ,6560
08/07/2012 19:47, 80, 15 , 29 ,7, 11, NW, None, None , 0, 0 ,6560
08/07/2012 19:37, 81, 15 , 30 ,7, 11, NW, None, None , 0, 0 ,6560
08/07/2012 19:30, 81, 16 , 31 ,4, 9, W, None, None , 0, 0 ,6560
08/07/2012 19:27, 82, 15 , 29 ,4, 11, W, None, None , 0, 0 ,6560
08/07/2012 19:19, 82, 15 , 30 ,7, 12, NW, None, None , 0, 0 ,6560
08/07/2012 19:17, 82, 15 , 30 ,7, 14, NW, None, None , 0, 0 ,6560
08/07/2012 19:07, 82, 14 , 29 ,7, 17, W, None, None , 0, 0 ,6560
08/07/2012 19:01, 82, 15 , 30 ,10, 21, W, None, None , 0, 0 ,6560
08/07/2012 18:57, 83, 15 , 31 ,7, 21, W, None, None , 0, 0 ,6560
08/07/2012 18:49, 83, 14 , 30 ,9, 16, NW, None, None , 0, 0 ,6560
08/07/2012 18:47, 83, 14 , 30 ,12, 16, NW, None, None , 0, 0 ,6560
08/07/2012 18:37, 84, 14 , 31 ,12, 18, W, None, None , 0, 0 ,6560
08/07/2012 18:30, 84, 15 , 32 ,12, 16, W, None, None , 0, 0 ,6560
08/07/2012 18:27, 84, 15 , 31 ,7, 14, W, None, None , 0, 0 ,6560
08/07/2012 18:19, 84, 14 , 30 ,11, 16, NW, None, None , 0, 0 ,6560
08/07/2012 18:17, 84, 14 , 31 ,10, 19, NW, None, None , 0, 0 ,6560
08/07/2012 18:07, 84, 14 , 30 ,14, 22, NW, None, None , 0, 0 ,6560
08/07/2012 17:57, 84, 14 , 30 ,12, 19, W, None, None , 0, 0 ,6560
08/07/2012 17:49, 84, 13 , 29 ,6, 24, NW, None, None , 0, 0 ,6560
08/07/2012 17:47, 84, 13 , 29 ,12, 24, NW, None, None , 0, 0 ,6560
08/07/2012 17:37, 86, 13 , 30 ,16, 22, W, None, None , 0, 0 ,6560
08/07/2012 17:31, 86, 12 , 29 ,16, 22, W, None, None , 0, 0 ,6560
08/07/2012 17:27, 87, 12 , 29 ,14, 22, NW, None, None , 0, 0 ,6560
08/07/2012 17:19, 87, 12 , 29 ,16, 22, W, None, None , 0, 0 ,6560
08/07/2012 17:16, 86, 13 , 30 ,13, 22, W, None, None , 0, 0 ,6560
08/07/2012 17:06, 86, 13 , 29 ,16, 26, NW, None, None , 0, 0 ,6560
08/07/2012 17:00, 86, 13 , 30 ,11, 26, NW, None, None , 0, 0 ,6560
08/07/2012 16:56, 86, 14 , 32 ,12, 17, W, None, None , 0, 0 ,6560
08/07/2012 16:49, 85, 12 , 29 ,9, 23, W, None, None , 0, 0 ,6560
08/07/2012 16:46, 85, 13 , 29 ,12, 23, W, None, None , 0, 0 ,6560
08/07/2012 16:36, 85, 14 , 31 ,14, 26, NW, None, None , 0, 0 ,6560
08/07/2012 16:31, 84, 13 , 29 ,17, 26, W, None, None , 0, 0 ,6560
08/07/2012 16:26, 85, 15 , 33 ,11, 19, W, None, None , 0, 0 ,6560
08/07/2012 16:19, 85, 15 , 33 ,10, 25, NW, None, None , 0, 0 ,6560
08/07/2012 16:16, 84, 15 , 32 ,17, 25, NW, None, None , 0, 0 ,6560
08/07/2012 16:06, 85, 13 , 29 ,16, 28, W, None, None , 0, 0 ,6560
08/07/2012 16:00, 86, 13 , 30 ,17, 24, W, None, None , 0, 0 ,6560
08/07/2012 15:56, 86, 14 , 31 ,11, 16, W, None, None , 0, 0 ,6560
08/07/2012 15:49, 85, 14 , 31 ,11, 25, W, None, None , 0, 0 ,6560
08/07/2012 15:46, 85, 14 , 31 ,17, 25, W, None, None , 0, 0 ,6560
08/07/2012 15:36, 84, 15 , 33 ,16, 25, W, None, None , 0, 0 ,6560
08/07/2012 15:26, 84, 14 , 31 ,17, 26, W, None, None , 0, 0 ,6560
08/07/2012 15:19, 84, 15 , 32 ,17, 30, W, None, None , 0, 0 ,6560
08/07/2012 15:16, 83, 16 , 33 ,22, 30, W, None, None , 0, 0 ,6560
08/07/2012 15:06, 84, 16 , 34 ,14, 29, NW, None, None , 0, 0 ,6560
08/07/2012 15:00, 83, 16 , 33 ,16, 29, NW, None, None , 0, 0 ,6560
08/07/2012 14:56, 83, 17 , 35 ,14, 23, W, None, None , 0, 0 ,6560
08/07/2012 14:49, 84, 16 , 33 ,16, 30, NW, None, None , 0, 0 ,6560
08/07/2012 14:46, 84, 17 , 35 ,17, 30, W, None, None , 0, 0 ,6560
08/07/2012 14:36, 83, 17 , 34 ,18, 25, W, None, None , 0, 0 ,6560
08/07/2012 14:26, 83, 17 , 35 ,17, 26, W, None, None , 0, 0 ,6560
08/07/2012 14:19, 82, 19 , 37 ,16, 22, SW, None, None , 0, 0 ,6560
08/07/2012 14:16, 82, 18 , 35 ,7, 22, W, None, None , 0, 0 ,6560
08/07/2012 14:06, 82, 19 , 36 ,16, 24, W, None, None , 0, 0 ,6560
08/07/2012 14:00, 82, 20 , 38 ,10, 16, SW, None, None , 0, 0 ,6560
08/07/2012 13:56, 80, 19 , 34 ,7, 16, NW, None, None , 0, 0 ,6560
08/07/2012 13:49, 80, 21 , 37 ,9, 14, SW, None, None , 0, 0 ,6560
08/07/2012 13:46, 80, 20 , 37 ,7, 16, SW, None, None , 0, 0 ,6560
08/07/2012 13:35, 82, 20 , 37 ,17, 22, W, None, None , 0, 0 ,6560
08/07/2012 13:30, 81, 21 , 38 ,8, 19, W, None, None , 0, 0 ,6560
08/07/2012 13:25, 80, 21 , 37 ,13, 19, W, None, None , 0, 0 ,6560
08/07/2012 13:19, 80, 21 , 37 ,9, 19, W, None, None , 0, 0 ,6560
08/07/2012 13:15, 81, 21 , 37 ,10, 19, W, None, None , 0, 0 ,6560
08/07/2012 13:05, 80, 20 , 37 ,13, 19, W, None, None , 0, 0 ,6560
08/07/2012 13:00, 81, 20 , 37 ,11, 20, W, None, None , 0, 0 ,6560
08/07/2012 12:55, 80, 21 , 37 ,15, 20, W, None, None , 0, 0 ,6560
08/07/2012 12:49, 80, 22 , 38 ,9, 23, W, None, None , 0, 0 ,6560
08/07/2012 12:45, 80, 22 , 38 ,14, 23, W, None, None , 0, 0 ,6560
08/07/2012 12:35, 80, 20 , 36 ,13, 25, NW, None, None , 0, 0 ,6560
08/07/2012 12:25, 80, 20 , 36 ,14, 27, W, None, None , 0, 0 ,6560
08/07/2012 12:19, 79, 20 , 35 ,17, 27, W, None, None , 0, 0 ,6560
08/07/2012 12:15, 78, 22 , 36 ,12, 22, W, None, None , 0, 0 ,6560
08/07/2012 12:05, 79, 20 , 35 ,17, 25, W, None, None , 0, 0 ,6560
08/07/2012 12:00, 79, 22 , 37 ,12, 22, W, None, None , 0, 0 ,6560
08/07/2012 11:55, 79, 21 , 36 ,16, 25, W, None, None , 0, 0 ,6560
08/07/2012 11:49, 79, 20 , 35 ,14, 22, W, None, None , 0, 0 ,6560
08/07/2012 11:45, 78, 22 , 37 ,12, 22, W, None, None , 0, 0 ,6560
08/07/2012 11:35, 78, 23 , 38 ,16, 21, W, None, None , 0, 0 ,6560
08/07/2012 11:31, 77, 24 , 38 ,13, 21, W, None, None , 0, 0 ,6560
08/07/2012 11:25, 77, 25 , 39 ,12, 23, W, None, None , 0, 0 ,6560
08/07/2012 11:19, 76, 24 , 37 ,15, 21, W, None, None , 0, 0 ,6560
08/07/2012 11:15, 77, 25 , 38 ,13, 21, W, None, None , 0, 0 ,6560
08/07/2012 11:05, 77, 25 , 39 ,14, 18, W, None, None , 0, 0 ,6560
08/07/2012 11:00, 76, 26 , 39 ,13, 19, W, None, None , 0, 0 ,6560
08/07/2012 10:55, 76, 26 , 38 ,16, 19, W, None, None , 0, 0 ,6560
08/07/2012 10:49, 76, 28 , 40 ,12, 19, W, None, None , 0, 0 ,6560
08/07/2012 10:45, 75, 28 , 40 ,15, 19, W, None, None , 0, 0 ,6560
08/07/2012 10:35, 75, 29 , 41 ,14, 19, W, None, None , 0, 0 ,6560
08/07/2012 10:30, 74, 32 , 42 ,11, 16, W, None, None , 0, 0 ,6560
08/07/2012 10:25, 74, 31 , 42 ,12, 18, W, None, None , 0, 0 ,6560
08/07/2012 10:19, 73, 32 , 42 ,12, 18, W, None, None , 0, 0 ,6560
08/07/2012 10:15, 74, 32 , 43 ,11, 16, W, None, None , 0, 0 ,6560
08/07/2012 10:05, 72, 33 , 41 ,15, 19, W, None, None , 0, 0 ,6560
08/07/2012 10:00, 73, 33 , 42 ,14, 19, W, None, None , 0, 0 ,6560
08/07/2012 09:54, 72, 35 , 42 ,10, 16, W, None, None , 0, 0 ,6560
08/07/2012 09:49, 72, 33 , 42 ,12, 16, W, None, None , 0, 0 ,6560
08/07/2012 09:44, 72, 34 , 42 ,11, 16, W, None, None , 0, 0 ,6560
08/07/2012 09:34, 71, 35 , 42 ,10, 16, NW, None, None , 0, 0 ,6560
08/07/2012 09:31, 71, 34 , 42 ,10, 16, W, None, None , 0, 0 ,6560
08/07/2012 09:24, 71, 35 , 42 ,12, 16, W, None, None , 0, 0 ,6560
08/07/2012 09:19, 71, 34 , 42 ,11, 15, W, None, None , 0, 0 ,6560
08/07/2012 09:14, 70, 35 , 42 ,9, 13, NW, None, None , 0, 0 ,6560
08/07/2012 09:04, 70, 37 , 42 ,9, 12, NW, None, None , 0, 0 ,6560
08/07/2012 09:00, 69, 37 , 42 ,10, 12, NW, None, None , 0, 0 ,6560
08/07/2012 08:54, 69, 38 , 42 ,9, 12, NW, None, None , 0, 0 ,6560
08/07/2012 08:49, 69, 38 , 42 ,8, 10, NW, None, None , 0, 0 ,6560
08/07/2012 08:44, 68, 39 , 43 ,7, 11, NW, None, None , 0, 0 ,6560
08/07/2012 08:34, 68, 39 , 42 ,9, 12, NW, None, None , 0, 0 ,6560
08/07/2012 08:30, 67, 40 , 42 ,7, 12, NW, None, None , 0, 0 ,6560
08/07/2012 08:24, 67, 40 , 42 ,7, 11, NW, None, None , 0, 0 ,6560
08/07/2012 08:19, 66, 41 , 42 ,7, 11, NW, None, None , 0, 0 ,6560
08/07/2012 08:14, 66, 42 , 42 ,7, 11, NW, None, None , 0, 0 ,6560
08/07/2012 08:04, 65, 44 , 43 ,7, 10, NW, None, None , 0, 0 ,6560
08/07/2012 08:00, 65, 44 , 42 ,8, 10, NW, None, None , 0, 0 ,6560
08/07/2012 07:54, 64, 44 , 42 ,7, 9, NW, None, None , 0, 0 ,6560
08/07/2012 07:49, 64, 45 , 42 ,6, 9, NW, None, None , 0, 0 ,6560
08/07/2012 07:44, 63, 46 , 42 ,7, 11, NW, None, None , 0, 0 ,6560
08/07/2012 07:34, 62, 46 , 42 ,8, 11, NW, None, None , 0, 0 ,6560
08/07/2012 07:30, 62, 46 , 41 ,9, 12, NW, None, None , 0, 0 ,6560
08/07/2012 07:24, 61, 47 , 41 ,11, 12, NW, None, None , 0, 0 ,6560
08/07/2012 07:19, 61, 48 , 41 ,9, 12, NW, None, None , 0, 0 ,6560
08/07/2012 07:14, 61, 48 , 41 ,11, 12, NW, None, None , 0, 0 ,6560
08/07/2012 07:04, 60, 48 , 41 ,10, 14, NW, None, None , 0, 0 ,6560
08/07/2012 07:00, 61, 48 , 41 ,11, 14, NW, None, None , 0, 0 ,6560
08/07/2012 06:54, 61, 48 , 41 ,10, 14, NW, None, None , 0, 0 ,6560
08/07/2012 06:49, 61, 47 , 41 ,11, 14, NW, None, None , 0, 0 ,6560
08/07/2012 06:44, 60, 48 , 41 ,9, 12, NW, None, None , 0, 0 ,6560
08/07/2012 06:34, 58, 50 , 40 ,7, 11, NW, None, None , 0, 0 ,6560
08/07/2012 06:30, 60, 48 , 40 ,7, 12, NW, None, None , 0, 0 ,6560
08/07/2012 06:24, 59, 49 , 40 ,11, 16, NW, None, None , 0, 0 ,6560
08/07/2012 06:19, 60, 47 , 40 ,9, 16, NW, None, None , 0, 0 ,6560
08/07/2012 06:13, 61, 46 , 40 ,8, 12, N, None, None , 0, 0 ,6560
08/07/2012 06:03, 61, 46 , 40 ,7, 9, N, None, None , 0, 0 ,6560
08/07/2012 06:00, 62, 45 , 40 ,6, 9, N, None, None , 0, 0 ,6560
08/07/2012 05:53, 60, 48 , 40 ,6, 7, N, None, None , 0, 0 ,6560
08/07/2012 05:49, 59, 49 , 40 ,6, 9, N, None, None , 0, 0 ,6560
08/07/2012 05:43, 59, 49 , 40 ,6, 9, N, None, None , 0, 0 ,6560
08/07/2012 05:33, 60, 48 , 40 ,7, 12, N, None, None , 0, 0 ,6560
08/07/2012 05:23, 60, 48 , 40 ,7, 9, N, None, None , 0, 0 ,6560
08/07/2012 05:19, 60, 48 , 40 ,7, 9, NW, None, None , 0, 0 ,6560
08/07/2012 05:13, 59, 49 , 40 ,8, 9, NW, None, None , 0, 0 ,6560
08/07/2012 05:03, 59, 49 , 40 ,8, 10, NW, None, None , 0, 0 ,6560
08/07/2012 05:01, 59, 49 , 40 ,8, 10, NW, None, None , 0, 0 ,6560
08/07/2012 04:53, 60, 48 , 40 ,9, 12, NW, None, None , 0, 0 ,6560
08/07/2012 04:49, 60, 48 , 40 ,10, 12, NW, None, None , 0, 0 ,6560
08/07/2012 04:43, 58, 50 , 40 ,10, 12, NW, None, None , 0, 0 ,6560
08/07/2012 04:33, 57, 51 , 39 ,7, 12, NW, None, None , 0, 0 ,6560
08/07/2012 04:31, 57, 51 , 39 ,9, 12, NW, None, None , 0, 0 ,6560
08/07/2012 04:23, 58, 50 , 40 ,11, 12, NW, None, None , 0, 0 ,6560
08/07/2012 04:19, 55, 55 , 40 ,9, 11, NW, None, None , 0, 0 ,6560
08/07/2012 04:13, 55, 53 , 39 ,7, 10, NW, None, None , 0, 0 ,6560
08/07/2012 04:03, 55, 52 , 38 ,6, 9, NW, None, None , 0, 0 ,6560
08/07/2012 04:01, 57, 50 , 39 ,6, 9, NW, None, None , 0, 0 ,6560
08/07/2012 03:53, 56, 50 , 38 ,5, 10, NW, None, None , 0, 0 ,6560
08/07/2012 03:49, 58, 50 , 40 ,8, 10, NW, None, None , 0, 0 ,6560
08/07/2012 03:43, 54, 54 , 38 ,6, 7, NW, None, None , 0, 0 ,6560
08/07/2012 03:33, 56, 51 , 38 ,4, 6, NW, None, None , 0, 0 ,6560
08/07/2012 03:23, 55, 52 , 38 ,6, 8, W, None, None , 0, 0 ,6560
08/07/2012 03:19, 55, 52 , 37 ,6, 7, NW, None, None , 0, 0 ,6560
08/07/2012 03:13, 57, 48 , 38 ,5, 6, W, None, None , 0, 0 ,6560
08/07/2012 03:03, 59, 45 , 38 ,4, 7, W, None, None , 0, 0 ,6560
08/07/2012 03:01, 60, 45 , 39 ,4, 7, NW, None, None , 0, 0 ,6560
08/07/2012 02:53, 58, 46 , 38 ,4, 7, NW, None, None , 0, 0 ,6560
08/07/2012 02:49, 58, 47 , 38 ,6, 7, NW, None, None , 0, 0 ,6560
08/07/2012 02:42, 58, 47 , 38 ,6, 7, NW, None, None , 0, 0 ,6560
08/07/2012 02:32, 57, 49 , 38 ,7, 7, NW, None, None , 0, 0 ,6560
08/07/2012 02:31, 56, 49 , 37 ,6, 7, NW, None, None , 0, 0 ,6560
08/07/2012 02:22, 58, 46 , 38 ,4, 6, W, None, None , 0, 0 ,6560
08/07/2012 02:19, 58, 47 , 38 ,5, 6, W, None, None , 0, 0 ,6560
08/07/2012 02:12, 56, 48 , 37 ,6, 8, NW, None, None , 0, 0 ,6560
08/07/2012 02:02, 58, 46 , 38 ,2, 3, NW, None, None , 0, 0 ,6560
08/07/2012 01:52, 57, 48 , 38 ,2, 4, NW, None, None , 0, 0 ,6560
08/07/2012 01:49, 58, 46 , 38 ,3, 5, W, None, None , 0, 0 ,6560
08/07/2012 01:42, 59, 44 , 38 ,4, 5, W, None, None , 0, 0 ,6560
08/07/2012 01:32, 61, 42 , 38 ,2, 4, NW, None, None , 0, 0 ,6560
08/07/2012 01:31, 61, 42 , 38 ,2, 5, NW, None, None , 0, 0 ,6560
08/07/2012 01:22, 60, 43 , 38 ,4, 5, NW, None, None , 0, 0 ,6560
08/07/2012 01:19, 61, 42 , 38 ,4, 6, NW, None, None , 0, 0 ,6560
08/07/2012 01:12, 62, 41 , 38 ,4, 6, NW, None, None , 0, 0 ,6560
08/07/2012 01:02, 60, 43 , 38 ,4, 7, NW, None, None , 0, 0 ,6560
08/07/2012 01:01, 60, 43 , 38 ,4, 7, NW, None, None , 0, 0 ,6560
08/07/2012 00:52, 60, 44 , 38 ,6, 9, NW, None, None , 0, 0 ,6560
08/07/2012 00:49, 60, 43 , 38 ,7, 9, NW, None, None , 0, 0 ,6560
08/07/2012 00:42, 60, 44 , 38 ,7, 10, NW, None, None , 0, 0 ,6560
08/07/2012 00:32, 61, 43 , 38 ,6, 9, NW, None, None , 0, 0 ,6560
08/07/2012 00:31, 61, 42 , 38 ,6, 9, NW, None, None , 0, 0 ,6560
08/07/2012 00:22, 61, 43 , 38 ,4, 8, NW, None, None , 0, 0 ,6560
08/07/2012 00:19, 61, 42 , 38 ,6, 8, NW, None, None , 0, 0 ,6560
08/07/2012 00:12, 62, 42 , 39 ,7, 9, NW, None, None , 0, 0 ,6560
08/07/2012 00:02, 61, 44 , 39 ,8, 9, NW, None, None , 0, 0 ,6560
Change End Date:
Copyright © 1998-2005 Surface Systems, Inc.
All Rights Reserved
Send comments about the data to:
SCAN Web ® is a registered trademark of Surface Systems, Inc.
SCAN Web Version 5.6